createdAt,value
2022-10-07T00:25:05.398Z,53
2022-10-07T00:40:03.493Z,53
2022-10-07T00:55:06.793Z,53
2022-10-07T01:25:04.735Z,53
2022-10-07T01:40:05.455Z,52.5
2022-10-07T02:10:02.518Z,52.5
2022-10-07T02:40:03.460Z,52
2022-10-07T02:55:04.800Z,52
2022-10-07T03:10:06.458Z,52
2022-10-07T03:25:03.436Z,52
2022-10-07T03:55:06.688Z,52
2022-10-07T04:25:06.632Z,51
2022-10-07T04:40:06.517Z,50.5
2022-10-07T04:55:06.757Z,49.5
2022-10-07T05:10:04.406Z,48.5
2022-10-07T05:25:05.688Z,47.5
2022-10-07T05:40:05.877Z,46.5
2022-10-07T05:55:03.345Z,43.5
2022-10-07T06:10:02.662Z,41
2022-10-07T06:40:05.507Z,40.5
2022-10-07T06:55:03.593Z,41
2022-10-07T07:10:05.378Z,41
2022-10-07T07:25:06.541Z,42
2022-10-07T07:45:05.687Z,42
2022-10-07T08:00:02.681Z,43
2022-10-07T08:15:03.559Z,43
2022-10-07T08:30:02.451Z,43.5
2022-10-07T08:45:06.751Z,44
2022-10-07T09:00:04.669Z,45
2022-10-07T09:15:03.378Z,46
2022-10-07T09:30:03.724Z,46.5
2022-10-07T09:50:05.593Z,47
2022-10-07T10:05:05.709Z,47.5
2022-10-07T10:20:02.786Z,48
2022-10-07T10:35:04.741Z,48.5
2022-10-07T10:50:02.412Z,49
2022-10-07T11:05:05.817Z,49
2022-10-07T11:20:03.709Z,49.5
2022-10-07T11:35:05.576Z,49
2022-10-07T11:55:03.870Z,50
2022-10-07T12:10:02.584Z,49.5
2022-10-07T12:40:04.364Z,49.5
2022-10-07T13:00:05.731Z,49
2022-10-07T13:15:03.447Z,49
2022-10-07T13:30:06.817Z,49.5
2022-10-07T13:45:06.340Z,49
2022-10-07T14:00:05.852Z,49
2022-10-07T14:15:04.510Z,49
2022-10-07T14:30:05.414Z,49
2022-10-07T14:45:06.699Z,49
2022-10-07T15:00:02.813Z,49
2022-10-07T15:30:05.605Z,49
2022-10-07T16:00:05.876Z,49
2022-10-07T16:30:03.481Z,49
2022-10-07T17:00:06.539Z,49
2022-10-07T17:20:04.754Z,48.5
2022-10-07T17:50:05.603Z,49
2022-10-07T18:25:04.922Z,50
2022-10-07T18:40:06.740Z,50
2022-10-07T18:55:04.745Z,50.5
2022-10-07T19:10:02.751Z,51
2022-10-07T19:30:05.469Z,51.5
2022-10-07T19:45:06.706Z,52
2022-10-07T20:05:03.873Z,52
2022-10-07T20:20:05.760Z,52
2022-10-07T20:35:03.545Z,52
2022-10-07T20:50:06.838Z,52
2022-10-07T21:05:05.805Z,52
2022-10-07T21:25:02.593Z,52
2022-10-07T21:40:02.609Z,52.5
2022-10-07T21:55:05.524Z,52.5
2022-10-07T22:10:05.566Z,53
2022-10-07T22:25:04.626Z,53
2022-10-07T22:40:05.413Z,53
2022-10-07T22:55:03.679Z,53
2022-10-07T23:10:05.616Z,53.5
2022-10-07T23:25:03.355Z,53.5
2022-10-07T23:40:03.747Z,53.5
2022-10-07T23:55:02.725Z,54
